Time;durP1;ratioP1;P1;durP2;ratioP2;P2;SDS_P1;SDS_P2;PMS_P1;PMS_P2;Temp;Humidity;BMP_temperature;BMP_pressure;BME280_temperature;BME280_humidity;BME280_pressure;Samples;Min_cycle;Max_cycle;Signal;HPM_P1;HPM_P2
2021/12/31 00:00:11;;;;;;;;;9.33;7.33;;;;;13.49;74.58;101642.66;5011034;28;45696;-82
2021/12/31 00:02:37;;;;;;;;;7.33;5.67;;;;;13.46;74.30;101641.19;5009548;28;45687;-82
2021/12/31 00:05:04;;;;;;;;;12.33;8.67;;;;;13.36;73.99;101626.94;5008840;28;45897;-76
2021/12/31 00:07:30;;;;;;;;;9.33;7.67;;;;;13.38;74.33;101633.06;4996605;28;45778;-81
2021/12/31 00:10:00;;;;;;;;;11.00;8.67;;;;;13.35;74.21;101630.75;5009749;28;46855;-77
2021/12/31 00:12:25;;;;;;;;;11.33;10.33;;;;;13.24;74.63;101621.97;5011946;28;45549;-82
2021/12/31 00:14:51;;;;;;;;;7.67;7.67;;;;;13.22;74.54;101620.50;4994001;28;45494;-83
2021/12/31 00:17:16;;;;;;;;;10.00;8.00;;;;;13.31;74.29;101630.28;5002806;28;45867;-82
2021/12/31 00:19:45;;;;;;;;;12.00;10.00;;;;;13.29;74.31;101626.03;5004842;28;45846;-81
2021/12/31 00:22:54;;;;;;;;;16.67;11.67;;;;;13.29;73.84;101620.50;5007289;28;45432;-77
2021/12/31 00:24:57;;;;;;;;;11.33;11.33;;;;;13.20;74.53;101617.06;5009931;28;45506;-81
2021/12/31 00:27:22;;;;;;;;;11.67;11.00;;;;;13.19;75.31;101615.41;5007715;28;45847;-76
2021/12/31 00:29:47;;;;;;;;;12.67;12.00;;;;;13.18;74.61;101622.78;5006546;28;45569;-76
2021/12/31 00:32:13;;;;;;;;;14.00;11.67;;;;;13.16;75.50;101621.28;5008641;28;45724;-77
2021/12/31 00:34:38;;;;;;;;;9.67;9.33;;;;;13.17;74.95;101625.75;5007906;28;45299;-80
2021/12/31 00:37:04;;;;;;;;;8.67;8.33;;;;;13.15;74.66;101625.13;5001109;28;45908;-77
2021/12/31 00:39:31;;;;;;;;;11.67;10.00;;;;;13.18;74.92;101627.47;5005926;28;47182;-80
2021/12/31 00:41:56;;;;;;;;;10.67;9.00;;;;;13.19;74.66;101629.16;5006966;28;45509;-83
2021/12/31 00:44:22;;;;;;;;;8.33;7.67;;;;;13.20;74.89;101630.84;5009732;28;45646;-81
2021/12/31 00:46:47;;;;;;;;;9.33;8.00;;;;;13.20;74.30;101623.47;5009133;28;47105;-82
2021/12/31 00:49:14;;;;;;;;;10.67;9.00;;;;;13.18;74.12;101616.44;5006917;28;45792;-82
2021/12/31 00:51:40;;;;;;;;;12.33;8.67;;;;;13.18;74.18;101620.03;5010126;28;45505;-80
2021/12/31 00:54:05;;;;;;;;;11.67;10.00;;;;;13.15;74.56;101614.94;5003814;28;45360;-75
2021/12/31 00:56:31;;;;;;;;;13.00;11.00;;;;;13.13;73.84;101617.06;4975612;28;46230;-80
2021/12/31 00:58:56;;;;;;;;;8.33;8.33;;;;;12.99;74.58;101598.75;5010808;28;47050;-80
2021/12/31 01:01:23;;;;;;;;;8.00;8.00;;;;;13.03;74.24;101608.31;5009484;28;45704;-80
2021/12/31 01:03:49;;;;;;;;;8.00;7.00;;;;;13.01;74.67;101611.28;5017060;28;45541;-82
2021/12/31 01:06:15;;;;;;;;;10.00;9.00;;;;;12.98;74.70;101613.56;4988863;28;46038;-80
2021/12/31 01:08:41;;;;;;;;;11.67;9.00;;;;;13.01;74.36;101618.69;5008892;28;46593;-80
2021/12/31 01:11:07;;;;;;;;;6.67;6.67;;;;;12.99;74.61;101604.28;5010881;28;45736;-81
2021/12/31 01:13:49;;;;;;;;;9.67;8.00;;;;;12.92;74.14;101590.47;5007582;28;45564;-80
2021/12/31 01:16:17;;;;;;;;;10.67;9.67;;;;;12.93;74.40;101592.16;5009654;28;45566;-81
2021/12/31 01:21:18;;;;;;;;;11.67;9.67;;;;;12.92;73.51;101597.88;5010310;28;45873;-81
2021/12/31 01:23:44;;;;;;;;;10.00;8.00;;;;;12.86;74.45;101605.91;5010908;28;45794;-81
2021/12/31 01:26:09;;;;;;;;;9.33;9.00;;;;;12.81;74.18;101588.28;4991203;28;45521;-81
2021/12/31 01:28:36;;;;;;;;;11.00;9.00;;;;;12.89;74.30;101605.50;5020579;28;46011;-80
2021/12/31 01:31:02;;;;;;;;;8.00;8.00;;;;;12.86;73.96;101611.41;5019282;28;45451;-81
2021/12/31 01:33:28;;;;;;;;;13.00;7.33;;;;;12.86;73.72;101616.06;5013156;28;45611;-75
2021/12/31 01:35:53;;;;;;;;;10.67;8.33;;;;;12.82;73.34;101620.28;5011364;28;45301;-76
2021/12/31 01:38:19;;;;;;;;;10.00;8.67;;;;;12.80;74.16;101630.63;5009334;28;46378;-76
2021/12/31 01:40:44;;;;;;;;;10.33;9.33;;;;;12.78;74.20;101617.06;5010657;28;45494;-76
2021/12/31 01:43:13;;;;;;;;;12.33;8.00;;;;;12.76;74.06;101621.09;5012679;28;45505;-77
2021/12/31 01:45:47;;;;;;;;;10.33;8.33;;;;;12.75;74.11;101613.88;5010249;28;46959;-76
2021/12/31 01:48:34;;;;;;;;;10.67;10.33;;;;;12.76;73.34;101610.09;4977099;28;47070;-76
2021/12/31 01:51:00;;;;;;;;;8.33;8.00;;;;;12.71;73.66;101613.44;5013497;28;45827;-81
2021/12/31 01:53:28;;;;;;;;;9.33;9.33;;;;;12.72;73.48;101620.63;5009131;28;46131;-79
2021/12/31 01:56:00;;;;;;;;;9.33;8.33;;;;;12.68;73.63;101609.19;5007789;28;45782;-80
2021/12/31 01:58:27;;;;;;;;;9.67;6.00;;;;;12.68;73.54;101611.94;5011981;28;46950;-80
2021/12/31 02:00:53;;;;;;;;;12.00;8.33;;;;;12.66;74.05;101627.78;5006295;28;45585;-81
2021/12/31 02:03:19;;;;;;;;;10.33;8.00;;;;;12.61;73.88;101612.94;4990736;28;45730;-81
2021/12/31 02:05:45;;;;;;;;;11.33;10.67;;;;;12.60;73.88;101605.72;5009019;28;45524;-80
2021/12/31 02:08:10;;;;;;;;;7.00;7.00;;;;;12.62;73.69;101611.88;5010656;28;45477;-80
2021/12/31 02:10:36;;;;;;;;;13.67;11.67;;;;;12.60;73.60;101612.06;5012092;28;45935;-81
2021/12/31 02:13:02;;;;;;;;;11.00;10.67;;;;;12.60;74.03;101606.56;5006806;28;45466;-81
2021/12/31 02:15:30;;;;;;;;;11.33;9.67;;;;;12.57;73.33;101606.13;4993112;28;47028;-82
2021/12/31 02:17:57;;;;;;;;;9.33;9.33;;;;;12.59;73.81;101609.53;4992622;28;47303;-80
2021/12/31 02:20:34;;;;;;;;;14.00;11.67;;;;;12.57;73.37;101600.63;5014675;28;45428;-82
2021/12/31 02:23:06;;;;;;;;;8.33;8.00;;;;;12.54;73.82;101607.38;5005059;28;45957;-81
2021/12/31 02:25:33;;;;;;;;;11.33;10.33;;;;;12.52;73.53;101604.81;5009251;28;45561;-74
2021/12/31 02:27:59;;;;;;;;;12.33;9.67;;;;;12.44;74.12;101595.88;5012271;28;45560;-80
2021/12/31 02:30:25;;;;;;;;;10.67;9.00;;;;;12.47;74.06;101607.34;5011305;28;45371;-80
2021/12/31 02:32:50;;;;;;;;;10.00;10.00;;;;;12.49;73.73;101602.47;5010511;28;45696;-75
2021/12/31 02:35:17;;;;;;;;;10.00;8.67;;;;;12.44;73.58;101590.38;5013739;28;45798;-74
2021/12/31 02:37:43;;;;;;;;;10.33;9.00;;;;;12.48;73.33;101598.03;5009656;28;45233;-75
2021/12/31 02:40:12;;;;;;;;;11.00;10.00;;;;;12.48;73.69;101587.00;5013501;28;45853;-76
2021/12/31 02:42:39;;;;;;;;;16.00;11.33;;;;;12.48;73.06;101591.69;4999792;28;45499;-75
2021/12/31 02:45:07;;;;;;;;;16.00;12.00;;;;;12.42;73.45;101576.81;5014021;28;45882;-76
2021/12/31 02:47:32;;;;;;;;;7.67;7.67;;;;;12.43;73.26;101574.94;5016222;28;45693;-81
2021/12/31 02:49:58;;;;;;;;;8.00;8.00;;;;;12.39;72.91;101576.38;5014978;28;45813;-76
2021/12/31 02:52:24;;;;;;;;;12.33;10.00;;;;;12.41;73.13;101577.88;5009980;28;45432;-75
2021/12/31 02:54:52;;;;;;;;;10.33;10.00;;;;;12.39;73.14;101565.38;5010297;28;46021;-75
2021/12/31 02:57:20;;;;;;;;;10.00;10.00;;;;;12.39;73.14;101570.88;4989735;28;46710;-75
2021/12/31 02:59:46;;;;;;;;;10.33;9.33;;;;;12.38;72.86;101572.78;5010463;28;45492;-76
2021/12/31 03:02:12;;;;;;;;;10.67;9.00;;;;;12.38;72.82;101585.69;5016561;28;45721;-76
2021/12/31 03:04:39;;;;;;;;;13.33;13.00;;;;;12.28;72.82;101569.53;5005759;28;45478;-79
2021/12/31 03:07:07;;;;;;;;;15.33;12.33;;;;;12.31;72.93;101582.88;5010298;28;45917;-75
2021/12/31 03:09:34;;;;;;;;;10.67;10.33;;;;;12.25;72.85;101569.94;5007633;28;45748;-76
2021/12/31 03:12:00;;;;;;;;;10.00;10.00;;;;;12.31;72.75;101582.88;5008433;28;45384;-81
2021/12/31 03:14:28;;;;;;;;;12.00;10.67;;;;;12.31;72.54;101596.63;5005752;28;46060;-78
2021/12/31 03:16:54;;;;;;;;;12.00;12.00;;;;;12.29;72.86;101596.84;5009697;28;45629;-80
2021/12/31 03:19:20;;;;;;;;;16.67;12.33;;;;;12.27;73.01;101604.41;5002465;28;45481;-78
2021/12/31 03:21:46;;;;;;;;;10.33;10.00;;;;;12.29;72.93;101601.47;5010962;28;45553;-78
2021/12/31 03:24:11;;;;;;;;;13.33;12.00;;;;;12.28;72.84;101610.78;5008346;28;45442;-77
2021/12/31 03:26:37;;;;;;;;;13.67;13.67;;;;;12.19;72.57;101599.91;5013332;28;46987;-75
2021/12/31 03:29:02;;;;;;;;;16.67;13.67;;;;;12.26;72.35;101623.88;5004822;28;45811;-75
2021/12/31 03:31:28;;;;;;;;;18.67;12.67;;;;;12.27;72.93;101629.19;5010490;28;45695;-79
2021/12/31 03:33:53;;;;;;;;;16.33;14.00;;;;;12.27;72.76;101622.84;4995957;28;45588;-79
2021/12/31 03:36:19;;;;;;;;;13.33;11.67;;;;;12.28;72.65;101616.28;5016825;28;47025;-78
2021/12/31 03:38:44;;;;;;;;;17.00;14.33;;;;;12.27;72.63;101603.59;5016258;28;45459;-74
2021/12/31 03:41:10;;;;;;;;;18.00;16.67;;;;;12.26;72.36;101593.63;5015261;28;45557;-73
2021/12/31 03:43:55;;;;;;;;;18.67;15.67;;;;;12.20;72.48;101576.03;5011778;28;45423;-74
2021/12/31 03:46:21;;;;;;;;;14.00;12.00;;;;;12.17;72.61;101577.28;4992730;28;45688;-74
2021/12/31 03:48:46;;;;;;;;;12.00;11.00;;;;;12.22;72.12;101582.19;5009065;28;45500;-75
2021/12/31 03:51:12;;;;;;;;;18.33;17.00;;;;;12.22;72.30;101575.84;5011172;28;45469;-74
2021/12/31 03:53:37;;;;;;;;;17.00;13.00;;;;;12.21;72.33;101569.47;5011457;28;45815;-74
2021/12/31 03:56:03;;;;;;;;;13.67;10.67;;;;;12.22;71.71;101570.34;4991812;28;47744;-74
2021/12/31 03:58:28;;;;;;;;;17.33;13.00;;;;;12.16;72.27;101548.06;5010661;28;45842;-78
2021/12/31 04:00:54;;;;;;;;;11.67;11.67;;;;;12.19;71.82;101555.91;5011030;28;45474;-77
2021/12/31 04:03:19;;;;;;;;;14.67;10.00;;;;;12.19;71.79;101563.34;5016025;28;45356;-78
2021/12/31 04:05:45;;;;;;;;;14.33;13.00;;;;;12.20;71.78;101559.53;5013561;28;45417;-78
2021/12/31 04:08:10;;;;;;;;;11.00;10.00;;;;;12.20;71.91;101556.78;4999885;28;45414;-79
2021/12/31 04:10:36;;;;;;;;;9.00;9.00;;;;;12.18;71.82;101556.13;5012680;28;45406;-82
2021/12/31 04:13:02;;;;;;;;;12.33;10.67;;;;;12.19;71.69;101560.59;5014440;28;45289;-80
2021/12/31 04:15:27;;;;;;;;;9.00;9.00;;;;;12.19;71.69;101568.84;5016516;28;45509;-77
2021/12/31 04:17:52;;;;;;;;;9.67;9.67;;;;;12.12;71.23;101555.00;5004622;28;45389;-77
2021/12/31 04:20:33;;;;;;;;;10.00;9.00;;;;;12.12;71.44;101538.50;4993989;28;45351;-77
2021/12/31 04:23:01;;;;;;;;;9.00;6.67;;;;;12.14;71.44;101541.06;5011416;28;45822;-75
2021/12/31 04:25:27;;;;;;;;;6.67;5.67;;;;;12.19;71.40;101538.59;5014529;28;45535;-76
2021/12/31 04:27:52;;;;;;;;;8.67;7.00;;;;;12.19;71.16;101533.91;4999341;28;45886;-77
2021/12/31 04:30:17;;;;;;;;;9.33;8.67;;;;;12.14;71.17;101519.06;5015114;28;45709;-77
2021/12/31 04:32:43;;;;;;;;;8.00;8.00;;;;;12.22;71.13;101531.84;5014029;28;46867;-77
2021/12/31 04:35:13;;;;;;;;;8.00;8.00;;;;;12.22;70.99;101537.34;5015188;28;46128;-75
2021/12/31 04:37:41;;;;;;;;;8.00;6.67;;;;;12.11;71.07;101513.97;5014568;28;45988;-77
2021/12/31 04:40:09;;;;;;;;;8.00;6.67;;;;;12.19;71.00;101533.91;5015634;28;45804;-76
2021/12/31 04:42:34;;;;;;;;;7.00;6.67;;;;;12.24;70.53;101535.22;5015984;28;45770;-77
2021/12/31 04:45:00;;;;;;;;;8.00;7.00;;;;;12.23;70.70;101533.53;5009889;28;46043;-76
2021/12/31 04:47:25;;;;;;;;;33.00;30.00;;;;;12.22;70.67;101545.59;5009637;28;45719;-76
2021/12/31 04:49:51;;;;;;;;;9.00;8.00;;;;;12.23;70.53;101555.53;5010556;28;45947;-75
2021/12/31 04:52:16;;;;;;;;;39.00;33.00;;;;;12.15;70.50;101551.88;4992154;28;46806;-80
2021/12/31 04:54:42;;;;;;;;;20.33;16.67;;;;;12.10;70.68;101539.78;5012433;28;45764;-81
2021/12/31 04:57:07;;;;;;;;;34.33;32.33;;;;;12.19;70.97;101557.84;5012979;28;45415;-76
2021/12/31 04:59:33;;;;;;;;;12.00;12.00;;;;;12.17;70.69;101551.66;5012527;28;45462;-76
2021/12/31 05:01:58;;;;;;;;;6.00;5.67;;;;;12.14;70.67;101546.56;5010554;28;45388;-77
2021/12/31 05:04:24;;;;;;;;;11.67;10.67;;;;;12.16;70.27;101544.47;5010486;28;46361;-77
2021/12/31 05:06:50;;;;;;;;;8.67;7.67;;;;;12.16;70.73;101555.47;5011599;28;45438;-78
2021/12/31 05:09:16;;;;;;;;;6.00;6.00;;;;;12.12;70.84;101544.00;4992183;28;45888;-76
2021/12/31 05:11:42;;;;;;;;;8.33;7.00;;;;;12.13;70.36;101551.22;5006327;28;45918;-78
2021/12/31 05:14:07;;;;;;;;;9.00;6.33;;;;;12.11;70.51;101557.97;5009757;28;48220;-76
2021/12/31 05:16:35;;;;;;;;;6.00;5.00;;;;;12.10;70.68;101562.63;5012330;28;45733;-77
2021/12/31 05:19:01;;;;;;;;;8.00;8.00;;;;;12.09;70.81;101549.91;5007387;28;45712;-80
2021/12/31 05:21:26;;;;;;;;;7.00;7.00;;;;;12.09;71.00;101543.56;5005923;28;45799;-73
2021/12/31 05:23:51;;;;;;;;;8.00;8.00;;;;;12.03;70.75;101539.72;5005002;28;45739;-80
2021/12/31 05:26:17;;;;;;;;;7.33;7.33;;;;;12.11;70.84;101549.72;4993552;28;45352;-79
2021/12/31 05:28:42;;;;;;;;;8.67;7.67;;;;;12.10;70.65;101540.63;5016392;28;45766;-80
2021/12/31 05:31:09;;;;;;;;;6.00;6.00;;;;;12.05;70.61;101532.13;5012481;28;45454;-80
2021/12/31 05:33:34;;;;;;;;;6.67;6.33;;;;;12.04;70.70;101530.44;5012813;28;46151;-78
2021/12/31 05:36:00;;;;;;;;;9.67;8.33;;;;;12.03;70.68;101523.22;5006286;28;45837;-75
2021/12/31 05:38:26;;;;;;;;;6.00;5.00;;;;;12.04;71.01;101518.59;5012511;28;45544;-75
2021/12/31 05:40:51;;;;;;;;;7.67;7.67;;;;;12.00;70.75;101501.63;5008551;28;47237;-80
2021/12/31 05:43:17;;;;;;;;;11.33;8.00;;;;;12.04;70.60;101507.59;5015197;28;46249;-79
2021/12/31 05:45:42;;;;;;;;;8.00;6.33;;;;;11.96;70.59;101500.31;5008511;28;45864;-80
2021/12/31 05:48:08;;;;;;;;;8.00;7.00;;;;;12.02;70.66;101485.81;5008220;28;45624;-80
2021/12/31 05:50:33;;;;;;;;;6.00;6.00;;;;;12.03;70.42;101489.38;5011077;28;45375;-79
2021/12/31 05:53:00;;;;;;;;;8.67;7.00;;;;;12.04;70.50;101485.59;5010192;28;45708;-73
2021/12/31 05:55:27;;;;;;;;;8.33;5.67;;;;;12.01;70.55;101487.69;4989099;28;45412;-74
2021/12/31 05:57:55;;;;;;;;;11.33;8.33;;;;;12.01;70.32;101498.69;5011938;28;45417;-75
2021/12/31 06:00:21;;;;;;;;;8.67;6.00;;;;;12.01;70.63;101506.09;5008140;28;46397;-72
2021/12/31 06:02:47;;;;;;;;;5.33;5.33;;;;;12.01;70.89;101517.09;5008326;28;45555;-75
2021/12/31 06:05:12;;;;;;;;;8.00;7.00;;;;;12.01;70.87;101525.34;5010683;28;45835;-74
2021/12/31 06:07:38;;;;;;;;;9.00;9.00;;;;;12.00;70.81;101540.97;5006805;28;45637;-75
2021/12/31 06:10:04;;;;;;;;;10.00;6.00;;;;;12.01;70.72;101537.16;5005863;28;46526;-74
2021/12/31 06:12:30;;;;;;;;;5.67;5.33;;;;;12.03;70.89;101539.72;5007334;28;47226;-78
2021/12/31 06:14:58;;;;;;;;;8.33;6.00;;;;;12.02;70.66;101540.78;5002451;28;45968;-80
2021/12/31 06:17:27;;;;;;;;;9.33;7.00;;;;;12.05;70.78;101542.25;5004666;28;45474;-82
2021/12/31 06:19:53;;;;;;;;;6.33;6.33;;;;;12.04;70.81;101530.44;4993366;28;47292;-80
2021/12/31 06:22:20;;;;;;;;;7.00;7.00;;;;;12.04;70.71;101524.09;5012143;28;45894;-80
2021/12/31 06:24:45;;;;;;;;;6.00;6.00;;;;;12.07;70.55;101515.44;5006452;28;45690;-80
2021/12/31 06:27:10;;;;;;;;;8.00;7.00;;;;;12.11;70.73;101522.22;5004013;28;45344;-76
2021/12/31 06:29:36;;;;;;;;;10.33;6.00;;;;;12.12;70.51;101527.50;4986646;28;46009;-77
2021/12/31 06:32:02;;;;;;;;;6.00;6.00;;;;;12.14;71.03;101530.94;5009801;28;46202;-71
2021/12/31 06:34:27;;;;;;;;;12.00;7.00;;;;;12.18;70.63;101529.50;5010323;28;45376;-78
2021/12/31 06:36:52;;;;;;;;;4.00;4.00;;;;;12.23;70.39;101526.13;5013017;28;45332;-76
2021/12/31 06:39:18;;;;;;;;;6.67;6.00;;;;;12.22;70.22;101521.69;5013830;28;45495;-78
2021/12/31 06:41:43;;;;;;;;;6.33;5.00;;;;;12.23;70.09;101517.03;5009868;28;45974;-77
2021/12/31 06:44:09;;;;;;;;;6.33;6.33;;;;;12.24;69.70;101521.47;5010632;28;45980;-76
2021/12/31 06:46:34;;;;;;;;;8.00;6.00;;;;;12.25;70.08;101537.78;5010632;28;45526;-73
2021/12/31 06:49:00;;;;;;;;;4.00;4.00;;;;;12.30;70.34;101537.16;4993991;28;45815;-76
2021/12/31 06:51:25;;;;;;;;;4.00;4.00;;;;;12.31;69.97;101536.13;5011863;28;46339;-73
2021/12/31 06:53:51;;;;;;;;;5.33;5.00;;;;;12.31;69.79;101516.88;5012171;28;45715;-71
2021/12/31 06:56:16;;;;;;;;;3.67;3.67;;;;;12.26;69.67;101505.63;4995206;28;45746;-71
2021/12/31 06:58:43;;;;;;;;;6.00;6.00;;;;;12.22;69.94;101510.69;5012969;28;45762;-72
2021/12/31 07:01:08;;;;;;;;;6.00;4.33;;;;;12.22;69.90;101521.69;5011691;28;45525;-72
2021/12/31 07:03:34;;;;;;;;;4.67;4.67;;;;;12.24;69.54;101536.06;5011165;28;45482;-71
2021/12/31 07:05:59;;;;;;;;;9.00;6.33;;;;;12.24;70.11;101548.97;5008898;28;45470;-76
2021/12/31 07:08:25;;;;;;;;;5.00;5.00;;;;;12.26;69.91;101556.00;5010429;28;45593;-75
2021/12/31 07:10:50;;;;;;;;;6.33;5.33;;;;;12.28;69.69;101559.38;5007514;28;45498;-79
2021/12/31 07:13:15;;;;;;;;;6.33;6.00;;;;;12.31;70.07;101552.63;4983837;28;45527;-76
2021/12/31 07:15:44;;;;;;;;;5.67;5.67;;;;;12.31;69.50;101567.22;4989008;28;45523;-80
2021/12/31 07:18:10;;;;;;;;;6.00;6.00;;;;;12.31;69.75;101577.38;5000211;28;45662;-77
2021/12/31 07:20:36;;;;;;;;;6.67;6.67;;;;;12.28;69.51;101566.78;4995423;28;45554;-72
2021/12/31 07:23:06;;;;;;;;;6.00;5.33;;;;;12.30;69.73;101579.28;4995501;28;45598;-71
2021/12/31 07:25:35;;;;;;;;;7.33;7.33;;;;;12.31;69.50;101578.22;4990155;28;45798;-77
2021/12/31 07:28:01;;;;;;;;;7.67;6.67;;;;;12.28;69.37;101553.03;4987957;28;45897;-72
2021/12/31 07:30:27;;;;;;;;;5.33;4.33;;;;;12.29;69.44;101557.47;4990597;28;45682;-72
2021/12/31 07:32:53;;;;;;;;;6.00;6.00;;;;;12.30;69.46;101575.69;4991232;28;45910;-72
2021/12/31 07:35:19;;;;;;;;;7.00;6.00;;;;;12.32;69.06;101570.81;4973024;28;46121;-70
2021/12/31 07:37:45;;;;;;;;;7.00;5.33;;;;;12.33;69.46;101553.28;4992837;28;45911;-73
2021/12/31 07:40:12;;;;;;;;;8.67;5.67;;;;;12.32;69.51;101555.19;4975835;28;47072;-72
2021/12/31 07:42:38;;;;;;;;;8.00;8.00;;;;;12.35;69.24;101553.94;4973784;28;45532;-75
2021/12/31 07:45:04;;;;;;;;;8.00;8.00;;;;;12.33;69.11;101537.59;4993228;28;46014;-74
2021/12/31 07:47:30;;;;;;;;;7.00;6.00;;;;;12.37;69.16;101543.56;4989631;28;46055;-76
2021/12/31 07:49:55;;;;;;;;;7.33;7.33;;;;;12.37;69.02;101540.81;4990979;28;45679;-76
2021/12/31 07:52:21;;;;;;;;;8.00;6.00;;;;;12.37;68.97;101557.34;4968248;28;45972;-76
2021/12/31 07:54:46;;;;;;;;;7.33;6.33;;;;;12.36;68.63;101566.63;4974785;28;46027;-75
2021/12/31 07:57:12;;;;;;;;;6.00;6.00;;;;;12.35;69.14;101570.44;4987435;28;45582;-76
2021/12/31 07:59:37;;;;;;;;;9.00;6.67;;;;;12.36;69.33;101550.13;4974749;28;48032;-71
2021/12/31 08:02:03;;;;;;;;;9.00;7.00;;;;;12.35;69.16;101556.69;4989626;28;45906;-71
2021/12/31 08:04:28;;;;;;;;;18.33;15.33;;;;;12.39;69.29;101581.88;4985855;28;46239;-72
2021/12/31 08:06:54;;;;;;;;;8.00;6.67;;;;;12.47;69.31;101579.84;4987650;28;46057;-76
2021/12/31 08:09:19;;;;;;;;;10.33;8.00;;;;;12.58;68.84;101596.84;4981942;28;46958;-71
2021/12/31 08:11:44;;;;;;;;;8.67;7.00;;;;;12.63;69.03;101589.66;4987477;28;45736;-78
2021/12/31 08:14:10;;;;;;;;;12.00;9.33;;;;;12.72;68.60;101604.13;5009284;28;45868;-72
2021/12/31 08:16:35;;;;;;;;;15.00;12.00;;;;;12.79;67.92;101595.91;4998660;28;45731;-70
2021/12/31 08:19:01;;;;;;;;;8.00;6.00;;;;;12.79;68.04;101571.13;4996756;28;45411;-78
2021/12/31 08:21:26;;;;;;;;;5.67;5.00;;;;;12.90;67.65;101581.56;4996038;28;45738;-73
2021/12/31 08:23:52;;;;;;;;;6.33;6.00;;;;;12.99;68.09;101582.25;5006328;28;45439;-72
2021/12/31 08:26:17;;;;;;;;;8.00;6.67;;;;;13.06;66.93;101572.94;5002669;28;45782;-71
2021/12/31 08:28:43;;;;;;;;;6.00;6.00;;;;;13.11;67.09;101575.09;4998080;28;47011;-69
2021/12/31 08:31:08;;;;;;;;;5.00;5.00;;;;;13.15;66.21;101573.63;4987046;28;45457;-71
2021/12/31 08:33:34;;;;;;;;;4.33;4.33;;;;;13.21;66.01;101574.72;5006491;28;45596;-75
2021/12/31 08:35:59;;;;;;;;;7.67;6.00;;;;;13.23;66.42;101591.88;5001043;28;45645;-78
2021/12/31 08:38:25;;;;;;;;;8.67;7.33;;;;;13.24;66.28;101597.19;4991429;28;48636;-71
2021/12/31 08:40:51;;;;;;;;;8.33;6.00;;;;;13.25;66.29;101585.13;4971284;28;45832;-70
2021/12/31 08:43:18;;;;;;;;;5.67;5.67;;;;;13.27;65.40;101568.38;4993090;28;46058;-70
2021/12/31 08:45:43;;;;;;;;;5.67;5.67;;;;;13.22;66.03;101577.25;4996154;28;46167;-72
2021/12/31 08:48:09;;;;;;;;;5.50;5.50;;;;;13.31;65.90;101588.97;4997971;28;45920;-76
2021/12/31 08:50:34;;;;;;;;;5.67;5.00;;;;;13.49;65.42;101593.06;4998692;28;45484;-70
2021/12/31 08:53:00;;;;;;;;;9.00;6.33;;;;;13.90;65.26;101592.94;4995142;28;46119;-76
2021/12/31 08:55:26;;;;;;;;;6.33;6.33;;;;;14.72;64.06;101608.44;4992894;28;45951;-71
2021/12/31 08:57:52;;;;;;;;;5.33;3.33;;;;;15.61;60.54;101628.94;4997997;28;45491;-74
2021/12/31 09:00:18;;;;;;;;;7.33;7.33;;;;;15.71;59.63;101620.16;4992431;28;46823;-76
2021/12/31 09:02:50;;;;;;;;;6.33;5.67;;;;;15.81;59.56;101626.09;5001531;28;45857;-78
2021/12/31 09:05:15;;;;;;;;;7.00;7.00;;;;;15.91;59.12;101622.00;5002203;28;45803;-75
2021/12/31 09:07:41;;;;;;;;;4.00;4.00;;;;;15.81;58.82;101623.34;4986389;28;45550;-79
2021/12/31 09:10:08;;;;;;;;;5.33;5.33;;;;;15.83;58.60;101625.88;5002719;28;45449;-79
2021/12/31 09:12:33;;;;;;;;;3.33;3.33;;;;;15.82;58.10;101619.50;5002453;28;46772;-77
2021/12/31 09:14:59;;;;;;;;;5.33;4.33;;;;;15.75;58.15;101613.13;5007824;28;45725;-73
2021/12/31 09:17:24;;;;;;;;;3.00;3.00;;;;;15.51;58.85;101617.53;5008672;28;48510;-81
2021/12/31 09:19:50;;;;;;;;;8.33;4.33;;;;;15.47;59.31;101627.31;5004778;28;45576;-81
2021/12/31 09:22:16;;;;;;;;;4.67;4.67;;;;;15.37;59.06;101613.97;5004441;28;45962;-77
2021/12/31 09:24:42;;;;;;;;;3.67;3.67;;;;;15.34;59.08;101615.25;5010152;28;45871;-74
2021/12/31 09:27:08;;;;;;;;;4.33;4.33;;;;;15.29;59.51;101617.81;5009729;28;45741;-79
2021/12/31 09:29:33;;;;;;;;;5.00;5.00;;;;;15.24;59.59;101622.31;5008811;28;45636;-77
2021/12/31 09:31:59;;;;;;;;;5.33;5.33;;;;;15.12;59.52;101608.31;4988965;28;46045;-79
2021/12/31 09:34:24;;;;;;;;;7.33;7.33;;;;;15.10;59.90;101625.09;5009147;28;45682;-74
2021/12/31 09:36:50;;;;;;;;;8.00;7.00;;;;;15.54;60.27;101628.16;4990463;28;48185;-78
2021/12/31 09:39:15;;;;;;;;;7.67;5.33;;;;;16.29;57.39;101641.31;5009646;28;46127;-79
2021/12/31 09:41:43;;;;;;;;;7.33;6.00;;;;;16.81;56.38;101646.59;5002372;28;46825;-80
2021/12/31 09:44:14;;;;;;;;;9.67;9.67;;;;;17.28;55.58;101654.44;5008334;28;45589;-79
2021/12/31 09:46:39;;;;;;;;;9.00;8.00;;;;;17.98;53.90;101667.00;4996364;28;48051;-75
2021/12/31 09:49:05;;;;;;;;;12.00;9.67;;;;;18.63;52.40;101654.19;5014296;28;45471;-80
2021/12/31 09:51:31;;;;;;;;;11.33;11.00;;;;;19.15;50.26;101662.66;5011816;28;45316;-77
2021/12/31 09:53:59;;;;;;;;;6.00;6.00;;;;;19.68;49.59;101660.69;5014776;28;45595;-78
2021/12/31 09:56:25;;;;;;;;;8.33;6.67;;;;;20.26;48.05;101655.97;5017677;28;46656;-79
2021/12/31 09:58:51;;;;;;;;;7.67;6.00;;;;;20.73;46.85;101676.28;5014887;28;45838;-79
2021/12/31 10:01:16;;;;;;;;;7.00;5.00;;;;;21.03;45.69;101666.69;5007934;28;45488;-74
2021/12/31 10:03:54;;;;;;;;;7.00;6.00;;;;;21.36;45.25;101659.31;5010137;28;45716;-74
2021/12/31 10:06:19;;;;;;;;;8.00;6.67;;;;;21.61;45.11;101670.00;5006601;28;47264;-74
2021/12/31 10:08:47;;;;;;;;;9.67;7.33;;;;;21.76;44.25;101683.31;4989523;28;45285;-75
2021/12/31 10:11:13;;;;;;;;;9.67;8.67;;;;;22.08;43.90;101691.75;5013508;28;45467;-72
2021/12/31 10:13:43;;;;;;;;;8.00;8.00;;;;;22.34;43.83;101684.50;5006489;28;46104;-73
2021/12/31 10:16:26;;;;;;;;;8.33;7.00;;;;;22.60;43.47;101704.28;5008082;28;45348;-74
2021/12/31 10:19:05;;;;;;;;;11.67;9.33;;;;;22.78;42.41;101703.03;5008230;28;45597;-79
2021/12/31 10:21:35;;;;;;;;;7.67;6.00;;;;;22.83;41.91;101700.28;5011024;28;45374;-78
2021/12/31 10:24:25;;;;;;;;;7.33;6.00;;;;;22.84;41.73;101685.16;5019919;28;45821;-76
2021/12/31 10:26:56;;;;;;;;;7.00;7.00;;;;;22.83;41.46;101679.84;5006846;28;47286;-74
2021/12/31 10:29:23;;;;;;;;;9.00;6.33;;;;;22.82;41.34;101678.19;5009299;28;45557;-74
2021/12/31 10:31:53;;;;;;;;;6.67;6.00;;;;;22.71;41.61;101696.81;5004933;28;45451;-76
2021/12/31 10:34:32;;;;;;;;;10.67;9.00;;;;;22.55;42.00;101719.06;5003219;28;46079;-71
2021/12/31 10:37:02;;;;;;;;;5.00;5.00;;;;;22.51;42.12;101719.88;5006939;28;45501;-74
2021/12/31 10:39:31;;;;;;;;;9.33;9.00;;;;;22.47;41.69;101735.47;5009260;28;45372;-73
2021/12/31 10:41:59;;;;;;;;;8.25;5.75;;;;;22.40;42.14;101749.69;5004380;28;45635;-73
2021/12/31 10:44:47;;;;;;;;;7.00;4.50;;;;;22.18;42.44;101753.31;5009153;28;45545;-75
2021/12/31 10:47:35;;;;;;;;;8.00;5.25;;;;;22.09;42.75;101765.22;4992788;28;46183;-75
2021/12/31 10:50:00;;;;;;;;;5.33;5.33;;;;;21.98;43.10;101753.09;5002305;28;46064;-74
2021/12/31 10:52:33;;;;;;;;;5.00;5.00;;;;;21.89;42.87;101760.22;5000996;28;45492;-74
2021/12/31 10:55:03;;;;;;;;;6.75;5.25;;;;;21.71;43.82;101753.88;4999451;28;45744;-76
2021/12/31 10:57:36;;;;;;;;;3.67;3.67;;;;;21.43;43.91;101752.91;4997258;28;45940;-74
2021/12/31 11:00:05;;;;;;;;;6.25;5.00;;;;;21.29;44.26;101735.69;5001181;28;45678;-73
2021/12/31 11:02:33;;;;;;;;;6.33;6.00;;;;;21.20;44.56;101748.41;4976645;28;45632;-73
2021/12/31 11:04:59;;;;;;;;;5.00;5.00;;;;;21.06;44.68;101770.22;4981701;28;46513;-72
2021/12/31 11:07:28;;;;;;;;;4.67;3.67;;;;;20.91;45.08;101764.38;4999110;28;47240;-73
2021/12/31 11:09:58;;;;;;;;;4.50;4.50;;;;;20.69;45.91;101759.56;5000765;28;45863;-74
2021/12/31 11:12:25;;;;;;;;;7.67;5.00;;;;;20.60;45.87;101755.50;4997769;28;45909;-74
2021/12/31 11:14:51;;;;;;;;;7.50;7.50;;;;;20.41;46.65;101736.19;4977020;28;45933;-74
2021/12/31 11:17:17;;;;;;;;;8.67;7.33;;;;;20.38;47.08;101747.84;4997083;28;45989;-72
2021/12/31 11:19:44;;;;;;;;;17.00;11.67;;;;;20.16;47.06;101749.66;4991882;28;45719;-75